createdAt,value
2018-09-03T00:02:48.985Z,19.40
2018-09-03T00:07:52.065Z,19.40
2018-09-03T00:12:55.157Z,19.40
2018-09-03T00:17:58.254Z,19.40
2018-09-03T00:23:01.349Z,19.40
2018-09-03T00:28:04.442Z,19.50
2018-09-03T00:33:12.973Z,19.50
2018-09-03T00:38:21.568Z,19.50
2018-09-03T00:43:30.034Z,19.50
2018-09-03T00:48:33.111Z,19.40
2018-09-03T00:53:36.192Z,19.50
2018-09-03T00:58:39.453Z,19.50
2018-09-03T01:03:42.561Z,19.50
2018-09-03T01:08:45.667Z,19.40
2018-09-03T01:13:48.745Z,19.40
2018-09-03T01:18:55.477Z,19.40
2018-09-03T01:23:58.582Z,19.40
2018-09-03T01:29:01.685Z,19.40
2018-09-03T01:34:04.769Z,19.40
2018-09-03T01:39:08.714Z,19.40
2018-09-03T01:44:11.817Z,19.40
2018-09-03T01:49:14.913Z,19.40
2018-09-03T01:54:18.002Z,19.40
2018-09-03T01:59:21.102Z,19.40
2018-09-03T02:04:24.195Z,19.40
2018-09-03T02:09:27.272Z,19.40
2018-09-03T02:14:30.332Z,19.40
2018-09-03T02:19:33.413Z,19.40
2018-09-03T02:24:36.669Z,19.40
2018-09-03T02:29:39.770Z,19.40
2018-09-03T02:34:42.913Z,19.40
2018-09-03T02:39:46.013Z,19.40
2018-09-03T02:44:49.109Z,19.40
2018-09-03T02:49:52.197Z,19.40
2018-09-03T02:54:55.322Z,19.40
2018-09-03T02:59:58.399Z,19.40
2018-09-03T03:05:01.495Z,19.40
2018-09-03T03:10:04.888Z,19.40
2018-09-03T03:15:07.983Z,19.30
2018-09-03T03:20:11.071Z,19.30
2018-09-03T03:25:14.181Z,19.30
2018-09-03T03:30:17.272Z,19.30
2018-09-03T03:35:20.345Z,19.30
2018-09-03T03:40:23.425Z,19.30
2018-09-03T03:45:26.502Z,19.20
2018-09-03T03:50:29.602Z,19.20
2018-09-03T03:55:32.681Z,19.20
2018-09-03T04:00:35.757Z,19.10
2018-09-03T04:05:38.846Z,19.10
2018-09-03T04:10:41.951Z,19.00
2018-09-03T04:15:45.042Z,18.90
2018-09-03T04:20:48.141Z,18.80
2018-09-03T04:25:51.237Z,18.80
2018-09-03T04:30:54.321Z,18.70
2018-09-03T04:35:57.386Z,18.60
2018-09-03T04:41:00.467Z,18.60
2018-09-03T04:46:03.553Z,18.50
2018-09-03T04:51:13.269Z,18.50
2018-09-03T04:56:16.388Z,18.40
2018-09-03T05:01:19.564Z,18.40
2018-09-03T05:06:22.648Z,18.40
2018-09-03T05:11:25.737Z,18.30
2018-09-03T05:16:28.837Z,18.30
2018-09-03T05:21:31.921Z,18.30
2018-09-03T05:26:35.071Z,18.30
2018-09-03T05:31:38.161Z,18.30
2018-09-03T05:36:47.459Z,18.30
2018-09-03T05:41:50.548Z,18.30
2018-09-03T05:46:53.633Z,18.30
2018-09-03T05:51:56.738Z,18.40
2018-09-03T05:56:59.980Z,18.50
2018-09-03T06:02:03.081Z,18.60
2018-09-03T06:07:06.160Z,18.70
2018-09-03T06:12:09.246Z,18.80
2018-09-03T06:17:12.348Z,18.90
2018-09-03T06:22:15.465Z,19.00
2018-09-03T06:27:18.562Z,19.10
2018-09-03T06:32:21.661Z,19.20
2018-09-03T06:37:24.753Z,19.30
2018-09-03T06:42:27.859Z,19.40
2018-09-03T06:47:30.964Z,19.50
2018-09-03T06:52:34.086Z,19.60
2018-09-03T06:57:37.157Z,19.70
2018-09-03T07:02:41.561Z,19.80
2018-09-03T07:07:44.648Z,20.00
2018-09-03T07:12:47.738Z,20.10
2018-09-03T07:17:50.838Z,20.20
2018-09-03T07:22:53.921Z,20.30
2018-09-03T07:27:57.022Z,20.40
2018-09-03T07:33:00.117Z,20.50
2018-09-03T07:38:03.315Z,20.60
2018-09-03T07:43:06.392Z,20.80
2018-09-03T07:48:09.475Z,20.90
2018-09-03T07:53:12.565Z,21.00
2018-09-03T07:58:15.648Z,21.10
2018-09-03T08:03:18.725Z,21.20
2018-09-03T08:08:21.800Z,21.40
2018-09-03T08:13:30.409Z,21.50
2018-09-03T08:18:33.483Z,21.60
2018-09-03T08:23:36.566Z,21.70
2018-09-03T08:28:39.649Z,21.90
2018-09-03T08:33:42.773Z,22.00
2018-09-03T08:38:45.862Z,22.10
2018-09-03T08:43:51.072Z,22.30
2018-09-03T08:48:54.141Z,22.40
2018-09-03T08:53:57.226Z,22.60
2018-09-03T08:59:00.292Z,22.80
2018-09-03T09:04:03.413Z,23.00
2018-09-03T09:09:06.987Z,23.20
2018-09-03T09:14:10.078Z,23.40
2018-09-03T09:19:13.187Z,23.70
2018-09-03T09:24:16.287Z,23.90
2018-09-03T09:29:19.369Z,24.20
2018-09-03T09:34:22.481Z,24.60
2018-09-03T09:39:25.570Z,24.90
2018-09-03T09:44:28.677Z,25.30
2018-09-03T09:49:31.800Z,25.70
2018-09-03T09:54:34.955Z,26.00
2018-09-03T09:59:38.050Z,26.40
2018-09-03T10:04:41.145Z,26.80
2018-09-03T10:09:44.277Z,27.20
2018-09-03T10:14:47.382Z,27.50
2018-09-03T10:19:50.495Z,27.90
2018-09-03T10:24:54.017Z,28.20
2018-09-03T10:29:57.094Z,28.50
2018-09-03T10:35:00.194Z,28.90
2018-09-03T10:40:03.272Z,29.20
2018-09-03T10:45:06.678Z,29.50
2018-09-03T10:50:09.796Z,29.70
2018-09-03T10:55:12.882Z,30.10
2018-09-03T11:00:15.973Z,30.30
2018-09-03T11:05:19.121Z,30.50
2018-09-03T11:10:22.187Z,30.80
2018-09-03T11:15:25.370Z,31.10
2018-09-03T11:20:29.505Z,31.30
2018-09-03T11:25:33.530Z,31.50
2018-09-03T11:30:36.630Z,31.50
2018-09-03T11:35:39.701Z,31.70
2018-09-03T11:40:42.782Z,31.70
2018-09-03T11:45:45.853Z,31.60
2018-09-03T11:50:48.934Z,31.50
2018-09-03T11:55:52.017Z,31.60
2018-09-03T12:00:59.574Z,31.80
2018-09-03T12:06:02.652Z,31.90
2018-09-03T12:11:06.238Z,31.90
2018-09-03T12:16:11.455Z,32.10
2018-09-03T12:21:15.069Z,32.00
2018-09-03T12:26:18.057Z,31.90
2018-09-03T12:31:23.036Z,31.80
2018-09-03T12:36:26.065Z,31.90
2018-09-03T12:41:29.153Z,31.80
2018-09-03T12:46:32.284Z,31.90
2018-09-03T12:51:35.297Z,32.00
2018-09-03T12:56:38.368Z,32.00
2018-09-03T13:01:41.463Z,31.90
2018-09-03T13:06:44.545Z,31.90
2018-09-03T13:11:47.645Z,31.90
2018-09-03T13:16:50.746Z,32.00
2018-09-03T13:21:53.829Z,32.00
2018-09-03T13:26:56.939Z,31.90
2018-09-03T13:32:00.032Z,31.90
2018-09-03T13:37:03.177Z,31.80
2018-09-03T13:42:06.314Z,31.80
2018-09-03T14:03:33.210Z,31.80
2018-09-03T14:08:36.285Z,31.80
2018-09-03T14:13:39.390Z,31.80
2018-09-03T14:18:42.488Z,31.80
2018-09-03T14:23:45.594Z,31.80
2018-09-03T14:28:48.661Z,31.90
2018-09-03T14:33:51.960Z,31.90
2018-09-03T14:38:55.045Z,31.80
2018-09-03T14:43:58.147Z,31.80
2018-09-03T14:49:01.345Z,31.80
2018-09-03T14:54:04.441Z,31.70
2018-09-03T14:59:07.521Z,31.50
2018-09-03T15:04:10.664Z,31.40
2018-09-03T15:09:13.712Z,31.40
2018-09-03T15:14:16.894Z,31.30
2018-09-03T15:35:51.094Z,30.80
2018-09-03T15:40:54.201Z,30.60
2018-09-03T15:45:57.306Z,30.30
2018-09-03T15:51:00.413Z,30.20
2018-09-03T16:12:28.120Z,29.80
2018-09-03T16:17:31.281Z,29.70
2018-09-03T16:22:34.378Z,29.70
2018-09-03T16:27:37.504Z,29.50
2018-09-03T16:32:40.617Z,29.30
2018-09-03T16:37:50.322Z,29.10
2018-09-03T16:42:53.425Z,28.80
2018-09-03T16:47:56.509Z,28.70
2018-09-03T16:52:59.620Z,28.40
2018-09-03T16:58:02.711Z,28.20
2018-09-03T17:03:05.800Z,28.00
2018-09-03T17:24:34.441Z,27.30
2018-09-03T17:29:37.804Z,27.10
2018-09-03T17:34:41.229Z,26.80
2018-09-03T17:39:44.381Z,26.60
2018-09-03T17:44:47.475Z,26.50
2018-09-03T17:49:50.590Z,26.30
2018-09-03T17:54:53.710Z,26.10
2018-09-03T17:59:56.801Z,25.90
2018-09-03T18:21:25.269Z,25.20
2018-09-03T18:42:51.909Z,24.50
2018-09-03T18:47:55.010Z,24.40
2018-09-03T18:52:58.114Z,24.20
2018-09-03T18:58:01.538Z,24.10
2018-09-03T19:19:29.363Z,23.60
2018-09-03T19:24:32.480Z,23.40
2018-09-03T19:29:35.779Z,23.30
2018-09-03T19:34:39.293Z,23.10
2018-09-03T19:39:42.684Z,23.00
2018-09-03T19:44:45.814Z,22.90
2018-09-03T19:49:49.453Z,22.80
2018-09-03T19:54:52.622Z,22.70
2018-09-03T20:16:20.435Z,22.30
2018-09-03T20:21:23.703Z,22.20
2018-09-03T20:26:27.023Z,22.10
2018-09-03T20:31:30.256Z,22.00
2018-09-03T20:36:33.664Z,21.90
2018-09-03T20:41:37.550Z,21.80
2018-09-03T21:03:05.976Z,21.50
2018-09-03T21:08:09.070Z,21.50
2018-09-03T21:13:12.168Z,21.40
2018-09-03T21:34:39.629Z,21.10
2018-09-03T21:39:42.963Z,21.00
2018-09-03T21:44:46.059Z,20.90
2018-09-03T21:49:49.145Z,20.80
2018-09-03T21:54:52.249Z,20.70
2018-09-03T21:59:55.334Z,20.70
2018-09-03T22:04:58.426Z,20.60
2018-09-03T22:10:01.908Z,20.60
2018-09-03T22:15:05.022Z,20.50
2018-09-03T22:20:08.159Z,20.50
2018-09-03T22:25:11.235Z,20.40
2018-09-03T22:30:14.317Z,20.40
2018-09-03T22:35:17.409Z,20.40
2018-09-03T22:40:20.501Z,20.30
2018-09-03T22:45:23.590Z,20.30
2018-09-03T23:06:51.501Z,20.10
2018-09-03T23:11:54.589Z,20.10
2018-09-03T23:16:57.671Z,20.00
2018-09-03T23:22:00.746Z,20.00
2018-09-03T23:27:03.829Z,19.90
2018-09-03T23:32:06.915Z,19.80
2018-09-03T23:37:09.989Z,19.80
2018-09-03T23:42:13.826Z,19.70
2018-09-03T23:47:16.923Z,19.60
2018-09-03T23:52:20.005Z,19.50
2018-09-03T23:57:23.078Z,19.40
